createdAt,value
2023-02-18T00:00:06.321Z,99.99
2023-02-18T00:01:09.302Z,99.99
2023-02-18T00:02:09.375Z,99.99
2023-02-18T00:03:06.287Z,99.99
2023-02-18T00:04:06.443Z,99.99
2023-02-18T00:05:06.244Z,99.99
2023-02-18T00:06:06.453Z,99.99
2023-02-18T00:07:06.225Z,99.99
2023-02-18T00:08:06.204Z,99.99
2023-02-18T00:09:06.215Z,99.99
2023-02-18T00:10:06.214Z,99.99
2023-02-18T00:11:06.165Z,99.99
2023-02-18T00:12:06.154Z,99.99
2023-02-18T00:13:06.144Z,99.99
2023-02-18T00:14:06.139Z,99.99
2023-02-18T00:15:06.143Z,99.99
2023-02-18T00:16:06.564Z,99.99
2023-02-18T00:17:06.096Z,99.99
2023-02-18T00:18:06.075Z,99.99
2023-02-18T00:19:06.067Z,99.99
2023-02-18T00:20:06.044Z,99.99
2023-02-18T00:21:09.073Z,99.99
2023-02-18T00:22:09.034Z,99.99
2023-02-18T00:23:06.009Z,99.99
2023-02-18T00:24:06.010Z,99.99
2023-02-18T00:25:06.002Z,99.99
2023-02-18T00:26:06.481Z,99.99
2023-02-18T00:27:05.968Z,99.99
2023-02-18T00:28:05.936Z,99.99
2023-02-18T00:29:05.927Z,99.99
2023-02-18T00:30:05.973Z,99.99
2023-02-18T00:31:06.027Z,99.99
2023-02-18T00:32:05.917Z,99.99
2023-02-18T00:33:05.871Z,99.99
2023-02-18T00:34:05.858Z,99.99
2023-02-18T00:35:05.846Z,99.99
2023-02-18T00:36:06.193Z,99.99
2023-02-18T00:37:05.860Z,99.99
2023-02-18T00:38:05.802Z,99.99
2023-02-18T00:39:05.792Z,99.99
2023-02-18T00:40:05.799Z,99.99
2023-02-18T00:41:08.801Z,99.99
2023-02-18T00:42:08.766Z,99.99
2023-02-18T00:43:05.741Z,99.99
2023-02-18T00:44:05.720Z,99.99
2023-02-18T00:45:05.717Z,99.99
2023-02-18T00:46:06.201Z,99.99
2023-02-18T00:47:05.753Z,99.99
2023-02-18T00:48:05.669Z,99.99
2023-02-18T00:49:05.662Z,99.99
2023-02-18T00:50:05.645Z,99.99
2023-02-18T00:51:05.625Z,99.99
2023-02-18T00:52:05.612Z,99.99
2023-02-18T00:53:05.630Z,99.99
2023-02-18T00:54:05.622Z,99.99
2023-02-18T00:55:05.575Z,99.99
2023-02-18T00:56:05.781Z,99.99
2023-02-18T00:57:05.544Z,99.99
2023-02-18T00:58:05.539Z,99.99
2023-02-18T00:59:05.546Z,99.99
2023-02-18T01:00:05.514Z,99.99
2023-02-18T01:01:08.501Z,99.99
2023-02-18T01:02:08.487Z,99.99
2023-02-18T01:03:05.465Z,99.99
2023-02-18T01:04:05.492Z,99.99
2023-02-18T01:05:05.544Z,99.99
2023-02-18T01:06:05.623Z,99.99
2023-02-18T01:07:05.416Z,99.99
2023-02-18T01:08:05.409Z,99.99
2023-02-18T01:09:05.392Z,99.99
2023-02-18T01:10:05.398Z,99.99
2023-02-18T01:11:05.353Z,99.99
2023-02-18T01:12:05.385Z,99.99
2023-02-18T01:13:05.348Z,99.99
2023-02-18T01:14:05.355Z,99.99
2023-02-18T01:15:05.309Z,99.99
2023-02-18T01:16:05.411Z,99.99
2023-02-18T01:17:05.282Z,99.99
2023-02-18T01:18:05.273Z,99.99
2023-02-18T01:19:05.281Z,99.99
2023-02-18T01:20:05.247Z,99.99
2023-02-18T01:21:08.229Z,99.99
2023-02-18T01:22:08.275Z,99.99
2023-02-18T01:23:05.195Z,99.99
2023-02-18T01:24:05.186Z,99.99
2023-02-18T01:25:05.187Z,99.99
2023-02-18T01:26:05.436Z,99.99
2023-02-18T01:27:05.146Z,99.99
2023-02-18T01:28:05.158Z,99.99
2023-02-18T01:29:05.130Z,99.99
2023-02-18T01:30:05.144Z,99.99
2023-02-18T01:31:05.173Z,99.99
2023-02-18T01:32:05.183Z,99.99
2023-02-18T01:33:05.088Z,99.99
2023-02-18T01:34:05.071Z,99.99
2023-02-18T01:35:05.028Z,99.99
2023-02-18T01:36:05.034Z,99.99
2023-02-18T01:37:05.027Z,99.99
2023-02-18T01:38:04.986Z,99.99
2023-02-18T01:39:04.988Z,99.99
2023-02-18T01:40:04.955Z,99.99
2023-02-18T01:41:07.937Z,99.99
2023-02-18T01:42:08.001Z,99.99
2023-02-18T01:43:04.919Z,99.99
2023-02-18T01:44:04.904Z,99.99
2023-02-18T01:45:04.891Z,99.99
2023-02-18T01:46:04.868Z,99.99
2023-02-18T01:47:04.865Z,99.99
2023-02-18T01:48:04.888Z,99.99
2023-02-18T01:49:04.834Z,99.99
2023-02-18T01:50:04.816Z,99.99
2023-02-18T01:51:04.813Z,99.99
2023-02-18T01:52:04.786Z,99.99
2023-02-18T01:53:04.778Z,99.99
2023-02-18T01:54:04.789Z,99.99
2023-02-18T01:55:04.753Z,99.99
2023-02-18T01:56:04.725Z,99.99
2023-02-18T01:57:04.736Z,99.99
2023-02-18T01:58:04.706Z,99.99
2023-02-18T01:59:04.725Z,99.99
2023-02-18T02:00:04.705Z,99.99
2023-02-18T02:01:07.699Z,99.99
2023-02-18T02:02:07.724Z,99.99
2023-02-18T02:03:04.647Z,99.99
2023-02-18T02:04:04.619Z,99.99
2023-02-18T02:05:04.636Z,99.99
2023-02-18T02:06:04.588Z,99.99
2023-02-18T02:07:04.585Z,99.99
2023-02-18T02:08:04.577Z,99.99
2023-02-18T02:09:04.550Z,99.99
2023-02-18T02:10:04.560Z,99.99
2023-02-18T02:11:04.534Z,99.99
2023-02-18T02:12:04.508Z,99.99
2023-02-18T02:13:04.507Z,99.99
2023-02-18T02:14:04.493Z,99.99
2023-02-18T02:15:04.528Z,99.99
2023-02-18T02:16:04.531Z,99.99
2023-02-18T02:17:04.451Z,99.99
2023-02-18T02:18:04.435Z,99.99
2023-02-18T02:19:04.426Z,99.99
2023-02-18T02:20:04.412Z,99.99
2023-02-18T02:21:07.409Z,99.99
2023-02-18T02:22:07.390Z,99.99
2023-02-18T02:23:04.352Z,99.99
2023-02-18T02:24:04.346Z,99.99
2023-02-18T02:25:04.322Z,99.99
2023-02-18T02:26:04.343Z,99.99
2023-02-18T02:27:06.616Z,99.99
2023-02-18T02:28:04.284Z,99.99
2023-02-18T02:29:04.282Z,99.99
2023-02-18T02:30:04.310Z,99.99
2023-02-18T02:31:04.348Z,99.99
2023-02-18T02:32:04.263Z,99.99
2023-02-18T02:33:04.216Z,99.99
2023-02-18T02:34:04.217Z,99.99
2023-02-18T02:35:04.195Z,99.99
2023-02-18T02:36:04.180Z,99.99
2023-02-18T02:37:04.205Z,99.99
2023-02-18T02:38:04.205Z,99.99
2023-02-18T02:39:04.138Z,99.99
2023-02-18T02:40:04.127Z,99.99
2023-02-18T02:41:07.114Z,99.99
2023-02-18T02:42:07.116Z,99.99
2023-02-18T02:43:04.095Z,99.99
2023-02-18T02:44:04.101Z,99.99
2023-02-18T02:45:04.076Z,99.99
2023-02-18T02:46:04.124Z,99.99
2023-02-18T02:47:04.029Z,99.99
2023-02-18T02:48:04.063Z,99.99
2023-02-18T02:49:04.007Z,99.99
2023-02-18T02:50:03.981Z,99.99
2023-02-18T02:51:03.976Z,99.99
2023-02-18T02:52:03.964Z,99.99
2023-02-18T02:53:03.953Z,99.99
2023-02-18T02:54:03.963Z,99.99
2023-02-18T02:55:03.926Z,99.99
2023-02-18T02:56:03.912Z,99.99
2023-02-18T02:57:03.894Z,99.99
2023-02-18T02:58:03.874Z,99.99
2023-02-18T02:59:03.900Z,99.99
2023-02-18T03:00:03.874Z,99.99
2023-02-18T03:01:06.878Z,99.99
2023-02-18T03:02:06.865Z,99.99
2023-02-18T03:03:03.874Z,99.99
2023-02-18T03:04:03.844Z,99.99
2023-02-18T03:05:03.808Z,99.99
2023-02-18T03:06:03.775Z,99.99
2023-02-18T03:07:03.762Z,99.99
2023-02-18T03:08:03.756Z,99.99
2023-02-18T03:09:03.742Z,99.99
2023-02-18T03:10:03.775Z,99.99
2023-02-18T03:11:03.728Z,99.99
2023-02-18T03:12:03.699Z,99.99
2023-02-18T03:13:03.710Z,99.99
2023-02-18T03:14:03.688Z,99.99
2023-02-18T03:15:03.671Z,99.99
2023-02-18T03:16:03.739Z,99.99
2023-02-18T03:17:03.665Z,99.99
2023-02-18T03:18:03.610Z,99.99
2023-02-18T03:19:03.613Z,99.99
2023-02-18T03:20:03.584Z,99.99
2023-02-18T03:21:06.611Z,99.99
2023-02-18T03:22:06.573Z,99.99
2023-02-18T03:23:03.550Z,99.99
2023-02-18T03:24:03.540Z,99.99
2023-02-18T03:25:03.541Z,99.99
2023-02-18T03:26:03.535Z,99.99
2023-02-18T03:27:03.508Z,99.99
2023-02-18T03:28:03.482Z,99.99
2023-02-18T03:29:03.484Z,99.99
2023-02-18T03:30:03.542Z,99.99
2023-02-18T03:31:03.528Z,99.99
2023-02-18T03:32:03.510Z,99.99
2023-02-18T03:33:03.416Z,99.99
2023-02-18T03:34:03.404Z,99.99
2023-02-18T03:35:03.407Z,99.99
2023-02-18T03:36:03.385Z,99.99
2023-02-18T03:37:03.417Z,99.99
2023-02-18T03:38:03.344Z,99.99
2023-02-18T03:39:03.355Z,99.99
2023-02-18T03:40:03.334Z,99.99
2023-02-18T03:41:06.323Z,99.99
2023-02-18T03:42:06.372Z,99.99
2023-02-18T03:43:03.284Z,99.99
2023-02-18T03:44:03.268Z,99.99
2023-02-18T03:45:03.288Z,99.99
2023-02-18T03:46:03.301Z,99.99
2023-02-18T03:47:03.230Z,99.99
2023-02-18T03:48:03.266Z,99.99
2023-02-18T03:49:03.211Z,99.99
2023-02-18T03:50:03.191Z,99.99
2023-02-18T03:51:03.187Z,99.99
2023-02-18T03:52:03.191Z,99.99
2023-02-18T03:53:03.161Z,99.99
2023-02-18T03:54:03.130Z,99.99
2023-02-18T03:55:03.138Z,99.99
2023-02-18T03:56:03.108Z,99.99
2023-02-18T03:57:03.127Z,99.99
2023-02-18T03:58:03.094Z,99.99
2023-02-18T03:59:03.106Z,99.99
2023-02-18T04:00:03.057Z,99.99
2023-02-18T04:01:06.049Z,99.99
2023-02-18T04:02:06.039Z,99.99
2023-02-18T04:03:03.017Z,99.99
2023-02-18T04:04:03.070Z,99.99
2023-02-18T04:05:02.999Z,99.99
2023-02-18T04:06:02.969Z,99.99
2023-02-18T04:07:02.958Z,99.99
2023-02-18T04:08:02.940Z,99.99
2023-02-18T04:09:02.965Z,99.99
2023-02-18T04:10:02.936Z,99.99
2023-02-18T04:11:02.916Z,99.99
2023-02-18T04:12:02.886Z,99.99
2023-02-18T04:13:02.877Z,99.99
2023-02-18T04:14:02.879Z,99.99
2023-02-18T04:15:02.921Z,99.99
2023-02-18T04:16:02.848Z,99.99
2023-02-18T04:17:02.827Z,99.99
2023-02-18T04:18:02.820Z,99.99
2023-02-18T04:19:02.806Z,99.99
2023-02-18T04:20:02.779Z,99.99
2023-02-18T04:21:05.809Z,99.99
2023-02-18T04:22:05.802Z,99.99
2023-02-18T04:23:02.748Z,99.99
2023-02-18T04:24:02.730Z,99.99
2023-02-18T04:25:02.724Z,99.99
2023-02-18T04:26:02.764Z,99.99
2023-02-18T04:27:02.687Z,99.99
2023-02-18T04:28:02.681Z,99.99
2023-02-18T04:29:02.670Z,99.99
2023-02-18T04:30:02.762Z,99.99
2023-02-18T04:31:02.727Z,99.99
2023-02-18T04:32:02.722Z,99.99
2023-02-18T04:33:02.649Z,99.99
2023-02-18T04:34:02.601Z,99.99
2023-02-18T04:35:02.594Z,99.99
2023-02-18T04:36:02.597Z,99.99
2023-02-18T04:37:02.561Z,99.99
2023-02-18T04:38:02.584Z,99.99
2023-02-18T04:39:02.564Z,99.99
2023-02-18T04:40:02.524Z,99.99
2023-02-18T04:41:05.538Z,99.99
2023-02-18T04:42:05.560Z,99.99
2023-02-18T04:43:02.481Z,99.99
2023-02-18T04:44:02.475Z,99.99
2023-02-18T04:45:02.454Z,99.99
2023-02-18T04:46:02.531Z,99.99
2023-02-18T04:47:02.427Z,99.99
2023-02-18T04:48:02.442Z,99.99
2023-02-18T04:49:02.405Z,99.99
2023-02-18T04:50:02.395Z,99.99
2023-02-18T04:51:02.380Z,99.99
2023-02-18T04:52:02.357Z,99.99
2023-02-18T04:53:02.388Z,99.99
2023-02-18T04:54:02.342Z,99.99
2023-02-18T04:55:02.326Z,99.99
2023-02-18T04:56:02.306Z,99.99
2023-02-18T04:57:02.303Z,99.99
2023-02-18T04:58:02.344Z,99.99
2023-02-18T04:59:02.265Z,99.99
2023-02-18T05:00:02.260Z,99.93
2023-02-18T05:01:05.259Z,99.99
2023-02-18T05:02:05.261Z,99.99
2023-02-18T05:03:02.211Z,99.99
2023-02-18T05:04:02.309Z,99.99
2023-02-18T05:05:02.203Z,99.99
2023-02-18T05:06:02.190Z,99.99
2023-02-18T05:07:02.169Z,99.99
2023-02-18T05:08:02.157Z,99.99
2023-02-18T05:09:02.157Z,99.99
2023-02-18T05:10:02.190Z,99.99
2023-02-18T05:11:02.120Z,99.99
2023-02-18T05:12:02.096Z,99.99
2023-02-18T05:13:02.081Z,99.99
2023-02-18T05:14:02.079Z,99.99
2023-02-18T05:15:02.055Z,99.99
2023-02-18T05:16:02.142Z,99.99
2023-02-18T05:17:02.022Z,99.99
2023-02-18T05:18:02.034Z,99.82
2023-02-18T05:19:02.000Z,99.72
2023-02-18T05:20:02.000Z,99.21
2023-02-18T05:21:05.000Z,99.35
2023-02-18T05:22:04.982Z,98.74
2023-02-18T05:23:01.960Z,98.43
2023-02-18T05:24:01.933Z,97.60
2023-02-18T05:25:01.933Z,97.71
2023-02-18T05:26:01.947Z,97.39
2023-02-18T05:27:01.926Z,97.08
2023-02-18T05:28:01.928Z,96.77
2023-02-18T05:29:01.868Z,96.15
2023-02-18T05:30:01.977Z,95.84
2023-02-18T05:31:01.933Z,95.22
2023-02-18T05:32:01.900Z,95.02
2023-02-18T05:33:01.846Z,94.71
2023-02-18T05:34:01.816Z,94.60
2023-02-18T05:35:01.788Z,94.29
2023-02-18T05:36:01.793Z,93.98
2023-02-18T05:37:01.796Z,93.98
2023-02-18T05:38:01.762Z,93.78
2023-02-18T05:39:01.739Z,93.78
2023-02-18T05:40:01.758Z,93.57
2023-02-18T05:41:04.722Z,93.57
2023-02-18T05:42:04.776Z,92.95
2023-02-18T05:43:01.699Z,92.74
2023-02-18T05:44:01.694Z,92.54
2023-02-18T05:45:01.656Z,92.54
2023-02-18T05:46:01.675Z,92.33
2023-02-18T05:47:01.626Z,92.02
2023-02-18T05:48:01.643Z,91.50
2023-02-18T05:49:01.612Z,91.50
2023-02-18T05:50:01.587Z,91.50
2023-02-18T05:51:01.580Z,91.30
2023-02-18T05:52:01.592Z,91.09
2023-02-18T05:53:01.569Z,90.99
2023-02-18T05:54:01.529Z,90.89
2023-02-18T05:55:01.525Z,90.47
2023-02-18T05:56:01.526Z,90.26
2023-02-18T05:57:01.517Z,89.95
2023-02-18T05:58:01.486Z,89.34
2023-02-18T05:59:01.495Z,89.13
2023-02-18T06:00:01.459Z,89.13
2023-02-18T06:01:04.449Z,89.13
2023-02-18T06:02:04.483Z,89.13
2023-02-18T06:03:01.483Z,89.03
2023-02-18T06:04:01.414Z,88.20
2023-02-18T06:05:01.381Z,87.27
2023-02-18T06:06:01.423Z,86.55
2023-02-18T06:07:01.361Z,85.93
2023-02-18T06:08:01.360Z,85.52
2023-02-18T06:09:01.381Z,85.21
2023-02-18T06:10:01.336Z,85.10
2023-02-18T06:11:01.312Z,84.89
2023-02-18T06:12:01.295Z,84.89
2023-02-18T06:13:01.288Z,84.89
2023-02-18T06:14:01.274Z,84.79
2023-02-18T06:15:01.294Z,84.38
2023-02-18T06:16:01.291Z,84.17
2023-02-18T06:17:01.252Z,83.97
2023-02-18T06:18:01.234Z,83.70
2023-02-18T06:19:01.206Z,83.49
2023-02-18T06:20:01.257Z,83.49
2023-02-18T06:21:04.173Z,83.18
2023-02-18T06:22:04.176Z,83.07
2023-02-18T06:23:01.144Z,82.97
2023-02-18T06:24:01.139Z,82.97
2023-02-18T06:25:01.116Z,82.66
2023-02-18T06:26:01.139Z,82.66
2023-02-18T06:27:01.097Z,82.56
2023-02-18T06:28:01.087Z,82.56
2023-02-18T06:29:01.069Z,82.35
2023-02-18T06:30:01.139Z,82.35
2023-02-18T06:31:01.138Z,82.45
2023-02-18T06:32:01.107Z,82.35
2023-02-18T06:33:01.014Z,82.25
2023-02-18T06:34:01.006Z,82.15
2023-02-18T06:35:00.986Z,81.84
2023-02-18T06:36:00.996Z,81.73
2023-02-18T06:37:01.462Z,81.01
2023-02-18T06:38:00.944Z,80.90
2023-02-18T06:39:00.945Z,80.39
2023-02-18T06:40:00.954Z,80.29
2023-02-18T06:41:03.904Z,80.29
2023-02-18T06:42:03.985Z,80.18
2023-02-18T06:43:00.889Z,79.97
2023-02-18T06:44:00.875Z,79.77
2023-02-18T06:45:00.860Z,79.36
2023-02-18T06:46:00.836Z,79.05
2023-02-18T06:47:00.834Z,78.84
2023-02-18T06:48:00.846Z,78.53
2023-02-18T06:49:00.799Z,78.01
2023-02-18T06:50:00.790Z,77.81
2023-02-18T06:51:00.768Z,77.50
2023-02-18T06:52:00.760Z,77.19
2023-02-18T06:53:00.738Z,76.87
2023-02-18T06:54:00.756Z,76.46
2023-02-18T06:55:00.708Z,76.26
2023-02-18T06:56:00.702Z,76.05
2023-02-18T06:57:00.697Z,75.84
2023-02-18T06:58:00.677Z,75.63
2023-02-18T06:59:00.681Z,75.84
2023-02-18T07:00:00.650Z,75.09
2023-02-18T07:01:03.733Z,75.09
2023-02-18T07:02:03.631Z,75.09
2023-02-18T07:03:00.597Z,74.88
2023-02-18T07:04:00.621Z,74.98
2023-02-18T07:05:00.616Z,74.57
2023-02-18T07:06:00.575Z,74.67
2023-02-18T07:07:00.599Z,74.57
2023-02-18T07:08:00.529Z,74.36
2023-02-18T07:09:00.536Z,74.36
2023-02-18T07:10:00.531Z,74.29
2023-02-18T07:11:00.500Z,74.05
2023-02-18T07:12:00.493Z,73.64
2023-02-18T07:13:00.511Z,73.85
2023-02-18T07:14:00.463Z,73.74
2023-02-18T07:15:00.458Z,73.43
2023-02-18T07:16:00.459Z,73.33
2023-02-18T07:17:00.443Z,73.12
2023-02-18T07:18:00.461Z,73.12
2023-02-18T07:19:00.397Z,72.91
2023-02-18T07:20:00.386Z,72.91
2023-02-18T07:21:03.362Z,72.91
2023-02-18T07:22:03.395Z,72.71
2023-02-18T07:23:00.334Z,72.61
2023-02-18T07:24:00.355Z,72.40
2023-02-18T07:25:00.294Z,72.30
2023-02-18T07:26:00.283Z,71.98
2023-02-18T07:27:00.278Z,71.98
2023-02-18T07:28:00.271Z,71.98
2023-02-18T07:29:00.279Z,71.88
2023-02-18T07:30:00.283Z,71.67
2023-02-18T07:31:00.262Z,71.57
2023-02-18T07:32:00.272Z,71.57
2023-02-18T07:33:01.928Z,71.44
2023-02-18T07:34:00.211Z,71.44
2023-02-18T07:35:00.166Z,71.33
2023-02-18T07:36:00.166Z,71.23
2023-02-18T07:37:00.153Z,71.23
2023-02-18T07:38:00.137Z,71.02
2023-02-18T07:39:00.158Z,70.92
2023-02-18T07:40:00.130Z,70.82
2023-02-18T07:41:03.098Z,70.82
2023-02-18T07:42:03.118Z,70.61
2023-02-18T07:43:00.103Z,70.20
2023-02-18T07:44:00.092Z,70.09
2023-02-18T07:45:00.039Z,69.89
2023-02-18T07:46:00.129Z,69.68
2023-02-18T07:47:00.037Z,69.37
2023-02-18T07:48:00.002Z,69.06
2023-02-18T07:48:59.990Z,68.85
2023-02-18T07:49:59.980Z,68.44
2023-02-18T07:50:59.998Z,68.37
2023-02-18T07:51:59.981Z,68.06
2023-02-18T07:52:59.936Z,67.93
2023-02-18T07:53:59.943Z,67.72
2023-02-18T07:54:59.911Z,67.61
2023-02-18T07:55:59.921Z,67.51
2023-02-18T07:56:59.872Z,67.61
2023-02-18T07:57:59.871Z,67.41
2023-02-18T07:58:59.850Z,67.30
2023-02-18T07:59:59.851Z,67.21
2023-02-18T08:01:02.864Z,67.30
2023-02-18T08:02:02.886Z,67.21
2023-02-18T08:02:59.811Z,67.21
2023-02-18T08:03:59.833Z,67.72
2023-02-18T08:04:59.790Z,67.30
2023-02-18T08:05:59.802Z,67.41
2023-02-18T08:06:59.757Z,67.41
2023-02-18T08:07:59.735Z,67.17
2023-02-18T08:08:59.725Z,67.38
2023-02-18T08:09:59.735Z,67.38
2023-02-18T08:11:02.692Z,67.27
2023-02-18T08:12:00.687Z,67.17
2023-02-18T08:12:59.674Z,67.07
2023-02-18T08:13:59.658Z,66.97
2023-02-18T08:14:59.680Z,67.17
2023-02-18T08:15:59.644Z,67.27
2023-02-18T08:16:59.669Z,66.86
2023-02-18T08:17:59.604Z,66.86
2023-02-18T08:18:59.613Z,66.97
2023-02-18T08:19:59.584Z,67.07
2023-02-18T08:21:02.619Z,66.63
2023-02-18T08:22:02.573Z,67.14
2023-02-18T08:22:59.536Z,67.03
2023-02-18T08:23:59.563Z,66.63
2023-02-18T08:24:59.513Z,66.63
2023-02-18T08:25:59.517Z,66.52
2023-02-18T08:27:01.395Z,66.52
2023-02-18T08:27:59.468Z,66.73
2023-02-18T08:28:59.453Z,66.31
2023-02-18T08:29:59.466Z,66.21
2023-02-18T08:30:59.449Z,66.31
2023-02-18T08:31:59.465Z,66.21
2023-02-18T08:32:59.437Z,66.21
2023-02-18T08:33:59.417Z,66.42
2023-02-18T08:34:59.375Z,65.91
2023-02-18T08:35:59.372Z,65.77
2023-02-18T08:36:59.351Z,65.59
2023-02-18T08:37:59.412Z,65.49
2023-02-18T08:38:59.332Z,65.25
2023-02-18T08:39:59.325Z,65.05
2023-02-18T08:41:02.302Z,64.84
2023-02-18T08:42:02.317Z,64.87
2023-02-18T08:42:59.276Z,64.67
2023-02-18T08:43:59.284Z,64.56
2023-02-18T08:44:59.251Z,64.56
2023-02-18T08:45:59.334Z,64.25
2023-02-18T08:46:59.224Z,64.25
2023-02-18T08:48:18.861Z,64.04
2023-02-18T08:49:00.194Z,64.22
2023-02-18T08:49:59.177Z,64.02
2023-02-18T08:50:59.167Z,63.50
2023-02-18T08:51:59.173Z,63.40
2023-02-18T08:52:59.141Z,63.40
2023-02-18T08:53:59.133Z,63.29
2023-02-18T08:54:59.105Z,63.27
2023-02-18T08:55:59.095Z,63.37
2023-02-18T08:56:59.156Z,62.85
2023-02-18T08:57:59.064Z,62.85
2023-02-18T08:58:59.054Z,62.75
2023-02-18T08:59:59.047Z,62.65
2023-02-18T09:01:02.118Z,62.75
2023-02-18T09:02:02.070Z,62.65
2023-02-18T09:02:59.001Z,62.44
2023-02-18T09:03:59.035Z,62.44
2023-02-18T09:04:58.980Z,62.24
2023-02-18T09:05:58.958Z,62.13
2023-02-18T09:06:58.947Z,62.24
2023-02-18T09:07:58.968Z,62.00
2023-02-18T09:08:58.919Z,61.69
2023-02-18T09:09:58.910Z,61.59
2023-02-18T09:10:58.902Z,61.38
2023-02-18T09:11:58.895Z,61.18
2023-02-18T09:12:58.871Z,60.97
2023-02-18T09:13:58.888Z,60.74
2023-02-18T09:14:58.840Z,60.43
2023-02-18T09:15:58.857Z,60.12
2023-02-18T09:16:58.833Z,60.02
2023-02-18T09:17:58.803Z,59.81
2023-02-18T09:18:58.834Z,59.68
2023-02-18T09:19:58.770Z,59.47
2023-02-18T09:21:01.783Z,59.37
2023-02-18T09:22:01.792Z,58.62
2023-02-18T09:22:58.728Z,58.62
2023-02-18T09:23:58.716Z,58.21
2023-02-18T09:24:58.700Z,57.46
2023-02-18T09:25:58.732Z,57.67
2023-02-18T09:26:58.672Z,57.06
2023-02-18T09:27:58.668Z,56.93
2023-02-18T09:28:58.684Z,56.41
2023-02-18T09:29:58.735Z,56.38
2023-02-18T09:30:58.658Z,56.28
2023-02-18T09:31:58.720Z,56.38
2023-02-18T09:32:58.590Z,56.18
2023-02-18T09:33:58.580Z,56.15
2023-02-18T09:34:58.570Z,55.74
2023-02-18T09:35:58.551Z,55.64
2023-02-18T09:36:58.537Z,55.30
2023-02-18T09:37:58.555Z,55.10
2023-02-18T09:38:58.500Z,55.21
2023-02-18T09:39:58.489Z,55.10
2023-02-18T09:41:01.481Z,55.10
2023-02-18T09:42:01.502Z,55.21
2023-02-18T09:42:58.454Z,54.87
2023-02-18T09:43:58.496Z,54.87
2023-02-18T09:44:58.423Z,54.77
2023-02-18T09:45:58.445Z,54.66
2023-02-18T09:46:58.404Z,54.87
2023-02-18T09:47:58.391Z,54.87
2023-02-18T09:48:58.401Z,54.46
2023-02-18T09:49:58.385Z,54.33
2023-02-18T09:50:58.350Z,54.64
2023-02-18T09:51:58.326Z,54.44
2023-02-18T09:52:58.357Z,54.53
2023-02-18T09:53:58.303Z,54.33
2023-02-18T09:54:58.317Z,54.23
2023-02-18T09:55:58.294Z,54.13
2023-02-18T09:56:58.270Z,54.23
2023-02-18T09:57:58.245Z,54.23
2023-02-18T09:58:58.275Z,54.23
2023-02-18T09:59:58.231Z,54.33
2023-02-18T10:01:01.208Z,54.23
2023-02-18T10:02:02.398Z,54.23
2023-02-18T10:02:58.254Z,54.23
2023-02-18T10:03:58.177Z,54.23
2023-02-18T10:04:58.179Z,54.02
2023-02-18T10:05:58.164Z,53.92
2023-02-18T10:06:58.140Z,54.00
2023-02-18T10:07:58.144Z,53.90
2023-02-18T10:08:58.157Z,53.90
2023-02-18T10:09:58.090Z,53.80
2023-02-18T10:10:58.117Z,54.00
2023-02-18T10:11:58.096Z,54.00
2023-02-18T10:12:58.059Z,54.00
2023-02-18T10:13:58.053Z,54.02
2023-02-18T10:14:58.072Z,54.02
2023-02-18T10:15:58.057Z,54.02
2023-02-18T10:16:58.024Z,53.92
2023-02-18T10:17:57.984Z,53.82
2023-02-18T10:18:57.989Z,53.80
2023-02-18T10:19:57.973Z,53.80
2023-02-18T10:21:00.991Z,53.80
2023-02-18T10:22:00.958Z,53.69
2023-02-18T10:22:57.938Z,53.69
2023-02-18T10:23:57.916Z,53.80
2023-02-18T10:24:57.902Z,53.69
2023-02-18T10:25:57.919Z,53.90
2023-02-18T10:26:57.875Z,53.90
2023-02-18T10:27:57.868Z,53.90
2023-02-18T10:28:57.851Z,53.80
2023-02-18T10:29:57.853Z,53.80
2023-02-18T10:30:57.967Z,53.90
2023-02-18T10:31:57.959Z,53.69
2023-02-18T10:32:57.818Z,53.80
2023-02-18T10:33:57.776Z,53.90
2023-02-18T10:35:00.248Z,53.69
2023-02-18T10:35:57.752Z,53.80
2023-02-18T10:36:57.760Z,53.69
2023-02-18T10:37:57.789Z,53.80
2023-02-18T10:38:57.726Z,53.80
2023-02-18T10:39:57.744Z,53.80
2023-02-18T10:41:00.687Z,53.69
2023-02-18T10:42:00.690Z,54.00
2023-02-18T10:42:57.669Z,53.69
2023-02-18T10:43:57.673Z,53.90
2023-02-18T10:44:57.642Z,53.67
2023-02-18T10:45:57.627Z,53.87
2023-02-18T10:46:57.616Z,53.87
2023-02-18T10:47:57.635Z,53.67
2023-02-18T10:48:57.594Z,53.87
2023-02-18T10:49:57.573Z,53.87
2023-02-18T10:50:57.553Z,53.77
2023-02-18T10:51:57.545Z,53.67
2023-02-18T10:52:57.559Z,54.08
2023-02-18T10:53:57.548Z,54.38
2023-02-18T10:54:57.506Z,54.21
2023-02-18T10:55:57.542Z,54.21
2023-02-18T10:56:57.477Z,54.41
2023-02-18T10:57:57.465Z,54.41
2023-02-18T10:58:57.488Z,54.21
2023-02-18T10:59:57.485Z,54.10
2023-02-18T11:01:00.424Z,54.21
2023-02-18T11:02:00.476Z,54.51
2023-02-18T11:02:57.396Z,54.41
2023-02-18T11:03:57.396Z,54.61
2023-02-18T11:04:57.376Z,54.51
2023-02-18T11:05:57.385Z,54.61
2023-02-18T11:06:57.357Z,54.61
2023-02-18T11:07:57.333Z,54.72
2023-02-18T11:08:57.340Z,54.82
2023-02-18T11:09:57.317Z,54.92
2023-02-18T11:10:57.325Z,54.82
2023-02-18T11:12:07.760Z,55.33
2023-02-18T11:12:58.288Z,54.92
2023-02-18T11:13:57.262Z,55.13
2023-02-18T11:14:57.250Z,54.82
2023-02-18T11:15:57.331Z,54.61
2023-02-18T11:16:57.218Z,54.72
2023-02-18T11:17:57.220Z,54.92
2023-02-18T11:18:57.199Z,54.82
2023-02-18T11:19:57.179Z,54.49
2023-02-18T11:21:00.193Z,54.49
2023-02-18T11:22:00.170Z,54.38
2023-02-18T11:22:57.142Z,54.59
2023-02-18T11:23:57.129Z,54.90
2023-02-18T11:24:57.123Z,54.59
2023-02-18T11:25:57.124Z,54.90
2023-02-18T11:26:57.090Z,54.59
2023-02-18T11:27:57.073Z,54.90
2023-02-18T11:28:57.061Z,54.69
2023-02-18T11:29:57.109Z,54.69
2023-02-18T11:30:57.117Z,54.79
2023-02-18T11:31:57.136Z,55.21
2023-02-18T11:32:57.009Z,54.82
2023-02-18T11:33:57.013Z,55.02
2023-02-18T11:34:56.994Z,54.82
2023-02-18T11:35:57.040Z,54.79
2023-02-18T11:36:57.015Z,54.69
2023-02-18T11:37:56.955Z,54.69
2023-02-18T11:38:56.950Z,54.90
2023-02-18T11:39:56.926Z,54.59
2023-02-18T11:40:59.968Z,55.10
2023-02-18T11:41:59.916Z,54.90
2023-02-18T11:42:56.908Z,54.92
2023-02-18T11:43:56.868Z,54.82
2023-02-18T11:44:56.860Z,54.51
2023-02-18T11:45:56.869Z,54.51
2023-02-18T11:46:56.928Z,54.72
2023-02-18T11:47:56.809Z,54.82
2023-02-18T11:48:56.799Z,54.82
2023-02-18T11:49:56.782Z,54.61
2023-02-18T11:50:56.781Z,54.41
2023-02-18T11:51:56.781Z,54.72
2023-02-18T11:52:56.752Z,54.72
2023-02-18T11:53:56.740Z,54.61
2023-02-18T11:54:56.721Z,54.72
2023-02-18T11:55:56.706Z,54.61
2023-02-18T11:56:56.729Z,54.61
2023-02-18T11:57:56.688Z,55.13
2023-02-18T11:58:56.696Z,55.23
2023-02-18T11:59:56.656Z,55.33
2023-02-18T12:00:59.650Z,55.94
2023-02-18T12:01:59.696Z,55.85
2023-02-18T12:02:56.625Z,55.85
2023-02-18T12:03:56.599Z,56.05
2023-02-18T12:04:56.622Z,56.05
2023-02-18T12:05:56.579Z,56.05
2023-02-18T12:06:56.568Z,56.15
2023-02-18T12:07:56.626Z,56.26
2023-02-18T12:08:56.544Z,56.46
2023-02-18T12:09:56.528Z,56.35
2023-02-18T12:10:56.521Z,56.87
2023-02-18T12:11:58.626Z,57.18
2023-02-18T12:12:56.502Z,57.38
2023-02-18T12:13:56.514Z,57.69
2023-02-18T12:14:56.460Z,57.59
2023-02-18T12:15:56.454Z,57.38
2023-02-18T12:16:56.443Z,57.38
2023-02-18T12:17:56.424Z,57.89
2023-02-18T12:18:56.690Z,57.69
2023-02-18T12:19:56.399Z,57.89
2023-02-18T12:20:59.414Z,58.10
2023-02-18T12:21:59.393Z,58.30
2023-02-18T12:22:56.360Z,58.61
2023-02-18T12:23:56.355Z,58.51
2023-02-18T12:24:56.377Z,58.72
2023-02-18T12:25:56.328Z,58.72
2023-02-18T12:26:56.315Z,58.51
2023-02-18T12:27:56.298Z,58.10
2023-02-18T12:28:56.285Z,57.89
2023-02-18T12:29:56.320Z,58.20
2023-02-18T12:30:56.288Z,58.10
2023-02-18T12:31:56.291Z,58.51
2023-02-18T12:32:56.230Z,58.30
2023-02-18T12:33:56.217Z,58.20
2023-02-18T12:34:56.208Z,58.00
2023-02-18T12:35:56.245Z,57.69
2023-02-18T12:36:56.178Z,58.10
2023-02-18T12:37:56.213Z,57.79
2023-02-18T12:38:56.163Z,58.51
2023-02-18T12:39:56.149Z,58.72
2023-02-18T12:40:59.166Z,59.84
2023-02-18T12:41:59.152Z,60.05
2023-02-18T12:42:56.129Z,60.25
2023-02-18T12:43:56.086Z,60.56
2023-02-18T12:44:56.083Z,61.27
2023-02-18T12:45:56.090Z,61.07
2023-02-18T12:46:56.046Z,60.86
2023-02-18T12:47:56.097Z,61.69
2023-02-18T12:48:56.022Z,62.71
2023-02-18T12:49:56.005Z,62.61
2023-02-18T12:50:55.991Z,62.40
2023-02-18T12:51:55.984Z,62.92